createdAt,value
2016-12-22T00:00:46.174Z,20.97
2016-12-22T00:01:46.236Z,21.07
2016-12-22T00:02:45.935Z,20.94
2016-12-22T00:03:46.252Z,20.95
2016-12-22T00:04:45.977Z,20.94
2016-12-22T00:05:46.614Z,20.91
2016-12-22T00:06:46.332Z,20.89
2016-12-22T00:07:46.367Z,20.99
2016-12-22T00:08:46.736Z,20.98
2016-12-22T00:09:46.420Z,20.92
2016-12-22T00:10:46.139Z,20.95
2016-12-22T00:11:46.174Z,20.87
2016-12-22T00:12:46.499Z,20.91
2016-12-22T00:13:46.223Z,20.91
2016-12-22T00:14:46.553Z,20.85
2016-12-22T00:15:46.889Z,20.91
2016-12-22T00:16:46.602Z,20.91
2016-12-22T00:17:46.942Z,20.88
2016-12-22T00:18:46.359Z,20.89
2016-12-22T00:19:46.692Z,20.76
2016-12-22T00:20:46.716Z,20.87
2016-12-22T00:21:46.741Z,20.91
2016-12-22T00:22:46.775Z,20.82
2016-12-22T00:23:47.111Z,20.87
2016-12-22T00:24:46.833Z,20.88
2016-12-22T00:25:47.159Z,20.77
2016-12-22T00:26:46.576Z,20.8
2016-12-22T00:27:46.907Z,20.73
2016-12-22T00:28:46.940Z,20.79
2016-12-22T00:29:46.976Z,20.76
2016-12-22T00:30:46.688Z,20.7
2016-12-22T00:31:47.014Z,20.76
2016-12-22T00:32:47.050Z,20.69
2016-12-22T00:33:47.070Z,20.72
2016-12-22T00:34:47.403Z,20.72
2016-12-22T00:35:47.125Z,20.8
2016-12-22T00:36:46.844Z,20.7
2016-12-22T00:37:47.181Z,20.58
2016-12-22T00:38:47.193Z,20.7
2016-12-22T00:39:46.923Z,20.72
2016-12-22T00:40:47.572Z,20.59
2016-12-22T00:41:47.588Z,20.61
2016-12-22T00:42:47.307Z,20.64
2016-12-22T00:43:47.041Z,20.59
2016-12-22T00:44:47.358Z,20.69
2016-12-22T00:45:47.395Z,20.52
2016-12-22T00:46:47.412Z,20.66
2016-12-22T00:47:47.441Z,20.64
2016-12-22T00:48:47.474Z,20.62
2016-12-22T00:49:47.502Z,20.61
2016-12-22T00:50:47.535Z,20.55
2016-12-22T00:51:47.580Z,20.57
2016-12-22T00:52:47.276Z,20.57
2016-12-22T00:53:47.298Z,20.64
2016-12-22T00:54:47.950Z,20.64
2016-12-22T00:55:47.669Z,20.58
2016-12-22T00:56:47.695Z,20.58
2016-12-22T00:57:47.416Z,20.55
2016-12-22T00:58:48.049Z,20.51
2016-12-22T00:59:47.470Z,20.5
2016-12-22T01:00:47.486Z,20.57
2016-12-22T01:01:48.131Z,20.43
2016-12-22T01:02:47.843Z,20.41
2016-12-22T01:03:48.186Z,20.42
2016-12-22T01:04:48.213Z,20.5
2016-12-22T01:05:47.930Z,20.43
2016-12-22T01:06:48.277Z,20.42
2016-12-22T01:07:48.287Z,20.54
2016-12-22T01:08:47.995Z,20.51
2016-12-22T01:09:48.028Z,20.51
2016-12-22T01:10:48.061Z,20.55
2016-12-22T01:11:47.796Z,20.47
2016-12-22T01:12:48.428Z,20.38
2016-12-22T01:13:48.156Z,20.5
2016-12-22T01:14:48.178Z,20.38
2016-12-22T01:15:48.201Z,20.32
2016-12-22T01:16:48.221Z,20.39
2016-12-22T01:17:48.258Z,20.31
2016-12-22T01:18:47.975Z,20.35
2016-12-22T01:19:48.312Z,20.33
2016-12-22T01:20:48.032Z,20.38
2016-12-22T01:21:48.053Z,20.35
2016-12-22T01:22:48.395Z,20.38
2016-12-22T01:23:48.415Z,20.31
2016-12-22T01:24:48.126Z,20.42
2016-12-22T01:25:48.768Z,20.33
2016-12-22T01:26:48.493Z,20.32
2016-12-22T01:27:48.225Z,20.29
2016-12-22T01:28:48.550Z,20.32
2016-12-22T01:29:48.877Z,20.31
2016-12-22T01:30:48.608Z,20.31
2016-12-22T01:31:48.628Z,20.28
2016-12-22T01:32:48.336Z,20.26
2016-12-22T01:33:48.369Z,20.21
2016-12-22T01:34:48.706Z,20.21
2016-12-22T01:35:48.726Z,20.26
2016-12-22T01:36:48.460Z,20.18
2016-12-22T01:37:48.481Z,20.17
2016-12-22T01:38:48.814Z,20.17
2016-12-22T01:39:48.838Z,20.21
2016-12-22T01:40:48.559Z,20.17
2016-12-22T01:41:48.591Z,20.21
2016-12-22T01:42:48.624Z,20.2
2016-12-22T01:43:48.649Z,20.14
2016-12-22T01:44:48.673Z,20.16
2016-12-22T01:45:48.999Z,20.13
2016-12-22T01:46:49.339Z,20.2
2016-12-22T01:47:48.748Z,20.23
2016-12-22T01:48:49.385Z,20.11
2016-12-22T01:49:49.105Z,20.16
2016-12-22T01:50:48.830Z,20.16
2016-12-22T01:51:49.162Z,20.13
2016-12-22T01:52:49.188Z,20.17
2016-12-22T01:53:49.212Z,20.13
2016-12-22T01:54:49.546Z,20.06
2016-12-22T01:55:49.269Z,20.06
2016-12-22T01:56:48.986Z,20.08
2016-12-22T01:57:49.315Z,20.14
2016-12-22T01:58:49.047Z,20.02
2016-12-22T01:59:49.072Z,20.01
2016-12-22T02:00:49.105Z,20.08
2016-12-22T02:01:49.134Z,20.05
2016-12-22T02:02:49.156Z,20.03
2016-12-22T02:03:49.787Z,20.08
2016-12-22T02:04:49.812Z,20.05
2016-12-22T02:05:49.529Z,20.08
2016-12-22T02:06:49.573Z,20.1
2016-12-22T02:07:49.286Z,20.02
2016-12-22T02:08:49.614Z,20.02
2016-12-22T02:09:49.336Z,19.94
2016-12-22T02:10:49.672Z,20.03
2016-12-22T02:11:49.393Z,20.05
2016-12-22T02:12:50.038Z,19.98
2016-12-22T02:13:49.747Z,19.96
2016-12-22T02:14:50.076Z,19.94
2016-12-22T02:15:49.796Z,19.92
2016-12-22T02:16:49.824Z,19.98
2016-12-22T02:17:49.849Z,19.94
2016-12-22T02:18:49.882Z,19.88
2016-12-22T02:19:49.907Z,19.92
2016-12-22T02:20:50.235Z,19.99
2016-12-22T02:21:49.648Z,19.98
2016-12-22T02:22:50.288Z,19.88
2016-12-22T02:23:49.705Z,19.96
2016-12-22T02:24:50.338Z,19.94
2016-12-22T02:25:50.376Z,19.95
2016-12-22T02:26:49.794Z,19.96
2016-12-22T02:27:50.118Z,19.99
2016-12-22T02:28:50.457Z,19.88
2016-12-22T02:29:50.178Z,19.88
2016-12-22T02:30:50.194Z,19.92
2016-12-22T02:31:50.232Z,19.87
2016-12-22T02:32:50.245Z,19.91
2016-12-22T02:33:50.285Z,19.91
2016-12-22T02:34:50.001Z,19.92
2016-12-22T02:35:50.330Z,19.91
2016-12-22T02:36:50.355Z,19.91
2016-12-22T02:37:50.383Z,19.84
2016-12-22T02:38:50.704Z,19.86
2016-12-22T02:39:50.745Z,19.84
2016-12-22T02:40:50.461Z,19.81
2016-12-22T02:41:50.799Z,19.83
2016-12-22T02:42:50.519Z,19.84
2016-12-22T02:43:50.544Z,19.84
2016-12-22T02:44:50.572Z,19.81
2016-12-22T02:45:50.897Z,19.8
2016-12-22T02:46:50.629Z,19.83
2016-12-22T02:47:50.338Z,19.87
2016-12-22T02:48:50.678Z,19.86
2016-12-22T02:49:50.704Z,19.87
2016-12-22T02:50:50.724Z,19.8
2016-12-22T02:51:50.457Z,19.87
2016-12-22T02:52:50.785Z,19.74
2016-12-22T02:53:51.110Z,19.76
2016-12-22T02:54:50.835Z,19.73
2016-12-22T02:55:50.859Z,19.76
2016-12-22T02:56:50.616Z,19.74
2016-12-22T02:57:50.940Z,19.76
2016-12-22T02:58:50.935Z,19.68
2016-12-22T02:59:50.970Z,19.76
2016-12-22T03:00:51.023Z,19.73
2016-12-22T03:01:51.016Z,19.78
2016-12-22T03:02:51.348Z,19.78
2016-12-22T03:03:50.765Z,19.65
2016-12-22T03:04:50.797Z,19.8
2016-12-22T03:05:51.117Z,19.77
2016-12-22T03:06:50.847Z,19.74
2016-12-22T03:07:51.474Z,19.68
2016-12-22T03:08:50.892Z,19.63
2016-12-22T03:09:51.223Z,19.69
2016-12-22T03:10:50.950Z,19.74
2016-12-22T03:11:50.978Z,19.73
2016-12-22T03:12:51.321Z,19.74
2016-12-22T03:13:51.339Z,19.66
2016-12-22T03:14:51.360Z,19.77
2016-12-22T03:15:51.385Z,19.71
2016-12-22T03:16:51.446Z,19.58
2016-12-22T03:17:51.137Z,19.65
2016-12-22T03:18:51.466Z,19.62
2016-12-22T03:19:51.183Z,19.62
2016-12-22T03:20:51.520Z,19.61
2016-12-22T03:21:51.245Z,19.62
2016-12-22T03:22:51.274Z,19.68
2016-12-22T03:23:51.603Z,19.68
2016-12-22T03:24:51.931Z,19.59
2016-12-22T03:25:51.652Z,19.66
2016-12-22T03:26:51.677Z,19.66
2016-12-22T03:27:51.705Z,19.68
2016-12-22T03:28:51.729Z,19.66
2016-12-22T03:29:51.754Z,19.63
2016-12-22T03:30:51.782Z,19.61
2016-12-22T03:31:51.508Z,19.62
2016-12-22T03:32:51.837Z,19.65
2016-12-22T03:33:51.866Z,19.63
2016-12-22T03:34:52.190Z,19.62
2016-12-22T03:35:51.611Z,19.62
2016-12-22T03:36:51.635Z,19.65
2016-12-22T03:37:52.271Z,19.51
2016-12-22T03:38:51.992Z,19.5
2016-12-22T03:39:52.021Z,19.59
2016-12-22T03:40:52.351Z,19.47
2016-12-22T03:41:51.766Z,19.55
2016-12-22T03:42:52.091Z,19.47
2016-12-22T03:43:51.823Z,19.55
2016-12-22T03:44:52.144Z,19.47
2016-12-22T03:45:51.885Z,19.5
2016-12-22T03:46:52.201Z,19.43
2016-12-22T03:47:52.238Z,19.5
2016-12-22T03:48:52.262Z,19.55
2016-12-22T03:49:52.583Z,19.46
2016-12-22T03:50:52.612Z,19.47
2016-12-22T03:51:52.028Z,19.48
2016-12-22T03:52:52.353Z,19.55
2016-12-22T03:53:52.094Z,19.47
2016-12-22T03:54:52.415Z,19.55
2016-12-22T03:55:52.744Z,19.5
2016-12-22T03:56:52.772Z,19.5
2016-12-22T03:57:52.797Z,19.55
2016-12-22T03:58:52.206Z,19.54
2016-12-22T03:59:52.230Z,19.58
2016-12-22T04:00:52.259Z,19.54
2016-12-22T04:01:52.600Z,19.46
2016-12-22T04:02:52.929Z,19.46
2016-12-22T04:03:52.654Z,19.54
2016-12-22T04:04:52.678Z,19.47
2016-12-22T04:05:52.694Z,19.48
2016-12-22T04:06:52.416Z,19.5
2016-12-22T04:07:52.754Z,19.39
2016-12-22T04:08:52.472Z,19.43
2016-12-22T04:09:52.507Z,19.43
2016-12-22T04:10:52.530Z,19.47
2016-12-22T04:11:52.867Z,19.5
2016-12-22T04:12:52.880Z,19.47
2016-12-22T04:13:53.208Z,19.47
2016-12-22T04:14:52.925Z,19.5
2016-12-22T04:15:52.961Z,19.46
2016-12-22T04:16:52.686Z,19.5
2016-12-22T04:17:53.015Z,19.37
2016-12-22T04:18:53.351Z,19.43
2016-12-22T04:19:52.769Z,19.51
2016-12-22T04:20:52.798Z,19.39
2016-12-22T04:21:53.422Z,19.41
2016-12-22T04:22:53.169Z,19.4
2016-12-22T04:23:53.467Z,19.4
2016-12-22T04:24:52.897Z,19.5
2016-12-22T04:25:52.917Z,19.46
2016-12-22T04:26:53.254Z,19.43
2016-12-22T04:27:53.282Z,19.43
2016-12-22T04:28:52.995Z,19.41
2016-12-22T04:29:53.015Z,19.43
2016-12-22T04:30:53.048Z,19.46
2016-12-22T04:31:53.689Z,19.4
2016-12-22T04:32:53.410Z,19.44
2016-12-22T04:33:53.131Z,19.43
2016-12-22T04:34:53.163Z,19.44
2016-12-22T04:35:53.484Z,19.41
2016-12-22T04:36:53.821Z,19.41
2016-12-22T04:37:53.537Z,19.44
2016-12-22T04:38:53.262Z,19.41
2016-12-22T04:39:53.887Z,19.37
2016-12-22T04:40:53.312Z,19.39
2016-12-22T04:41:53.940Z,19.39
2016-12-22T04:42:53.986Z,19.37
2016-12-22T04:43:53.390Z,19.4
2016-12-22T04:44:54.027Z,19.29
2016-12-22T04:45:53.436Z,19.43
2016-12-22T04:46:53.475Z,19.39
2016-12-22T04:47:53.800Z,19.37
2016-12-22T04:48:54.134Z,19.37
2016-12-22T04:49:53.859Z,19.31
2016-12-22T04:50:53.887Z,19.33
2016-12-22T04:51:53.904Z,19.44
2016-12-22T04:52:53.625Z,19.33
2016-12-22T04:53:53.949Z,19.31
2016-12-22T04:54:53.669Z,19.41
2016-12-22T04:55:53.694Z,19.29
2016-12-22T04:56:54.032Z,19.29
2016-12-22T04:57:53.757Z,19.29
2016-12-22T04:58:54.089Z,19.29
2016-12-22T04:59:54.414Z,19.31
2016-12-22T05:00:54.142Z,19.31
2016-12-22T05:01:54.475Z,19.29
2016-12-22T05:02:54.183Z,19.29
2016-12-22T05:03:54.220Z,19.29
2016-12-22T05:04:53.946Z,19.32
2016-12-22T05:05:54.270Z,19.32
2016-12-22T05:06:54.306Z,19.28
2016-12-22T05:07:54.628Z,19.31
2016-12-22T05:08:54.349Z,19.28
2016-12-22T05:09:54.068Z,19.25
2016-12-22T05:10:54.090Z,19.31
2016-12-22T05:11:54.732Z,19.26
2016-12-22T05:12:54.463Z,19.31
2016-12-22T05:13:54.792Z,19.26
2016-12-22T05:14:54.517Z,19.26
2016-12-22T05:15:54.841Z,19.25
2016-12-22T05:16:54.564Z,19.26
2016-12-22T05:17:54.283Z,19.23
2016-12-22T05:18:54.303Z,19.21
2016-12-22T05:19:54.632Z,19.23
2016-12-22T05:20:54.365Z,19.31
2016-12-22T05:21:54.386Z,19.19
2016-12-22T05:22:54.717Z,19.18
2016-12-22T05:23:55.053Z,19.18
2016-12-22T05:24:54.763Z,19.28
2016-12-22T05:25:55.092Z,19.18
2016-12-22T05:26:54.521Z,19.18
2016-12-22T05:27:54.842Z,19.21
2016-12-22T05:28:55.168Z,19.25
2016-12-22T05:29:54.904Z,19.21
2016-12-22T05:30:54.628Z,19.26
2016-12-22T05:31:54.953Z,19.26
2016-12-22T05:32:54.669Z,19.23
2016-12-22T05:33:54.998Z,19.21
2016-12-22T05:34:54.719Z,19.26
2016-12-22T05:35:55.052Z,19.33
2016-12-22T05:36:55.081Z,19.32
2016-12-22T05:37:55.106Z,19.29
2016-12-22T05:38:55.127Z,19.37
2016-12-22T05:39:55.191Z,19.4
2016-12-22T05:40:55.187Z,19.44
2016-12-22T05:41:54.900Z,19.41
2016-12-22T05:42:54.928Z,19.43
2016-12-22T05:43:55.562Z,19.44
2016-12-22T05:44:55.599Z,19.46
2016-12-22T05:45:55.047Z,19.46
2016-12-22T05:46:55.340Z,19.54
2016-12-22T05:47:55.369Z,19.46
2016-12-22T05:48:55.693Z,19.5
2016-12-22T05:49:55.105Z,19.5
2016-12-22T05:50:55.147Z,19.61
2016-12-22T05:51:55.479Z,19.62
2016-12-22T05:52:55.496Z,19.65
2016-12-22T05:53:55.513Z,19.68
2016-12-22T05:54:55.270Z,19.65
2016-12-22T05:55:55.280Z,19.65
2016-12-22T05:56:55.588Z,19.71
2016-12-22T05:57:55.620Z,19.62
2016-12-22T05:58:55.648Z,19.74
2016-12-22T05:59:55.385Z,19.76
2016-12-22T06:00:55.706Z,19.76
2016-12-22T06:01:55.731Z,19.92
2016-12-22T06:02:55.452Z,19.88
2016-12-22T06:03:55.789Z,19.86
2016-12-22T06:04:55.814Z,19.92
2016-12-22T06:05:55.526Z,19.98
2016-12-22T06:06:55.550Z,19.92
2016-12-22T06:07:55.611Z,19.94
2016-12-22T06:08:55.616Z,20.01
2016-12-22T06:09:56.240Z,19.98
2016-12-22T06:10:55.662Z,19.96
2016-12-22T06:11:56.351Z,20.02
2016-12-22T06:12:55.715Z,20.03
2016-12-22T06:13:56.044Z,20.03
2016-12-22T06:14:55.761Z,20.02
2016-12-22T06:15:55.781Z,20.01
2016-12-22T06:16:55.824Z,20.11
2016-12-22T06:17:55.835Z,20.18
2016-12-22T06:18:56.183Z,20.2
2016-12-22T06:19:56.205Z,20.21
2016-12-22T06:20:55.925Z,20.17
2016-12-22T06:21:56.558Z,20.2
2016-12-22T06:22:56.579Z,20.26
2016-12-22T06:23:56.011Z,20.31
2016-12-22T06:24:56.332Z,20.24
2016-12-22T06:25:56.360Z,20.33
2016-12-22T06:26:56.082Z,20.35
2016-12-22T06:27:56.722Z,20.35
2016-12-22T06:28:56.132Z,20.38
2016-12-22T06:29:56.164Z,20.43
2016-12-22T06:30:56.801Z,20.48
2016-12-22T06:31:56.517Z,20.54
2016-12-22T06:32:56.529Z,20.52
2016-12-22T06:33:56.259Z,20.42
2016-12-22T06:34:56.599Z,20.52
2016-12-22T06:35:56.932Z,20.57
2016-12-22T06:36:56.653Z,20.61
2016-12-22T06:37:56.377Z,20.64
2016-12-22T06:38:56.694Z,20.58
2016-12-22T06:39:56.727Z,20.66
2016-12-22T06:40:56.456Z,20.66
2016-12-22T06:41:57.085Z,20.69
2016-12-22T06:42:57.113Z,20.62
2016-12-22T06:43:56.529Z,20.59
2016-12-22T06:44:57.159Z,20.73
2016-12-22T06:45:56.580Z,20.62
2016-12-22T06:46:56.604Z,20.76
2016-12-22T06:47:56.633Z,20.74
2016-12-22T06:48:56.971Z,20.76
2016-12-22T06:49:57.303Z,20.7
2016-12-22T06:50:57.024Z,20.74
2016-12-22T06:51:57.348Z,20.72
2016-12-22T06:52:56.765Z,20.8
2016-12-22T06:53:57.098Z,20.79
2016-12-22T06:54:56.819Z,20.82
2016-12-22T06:55:57.448Z,20.82
2016-12-22T06:56:56.876Z,20.76
2016-12-22T06:57:57.209Z,20.82
2016-12-22T06:58:56.930Z,20.77
2016-12-22T06:59:56.963Z,20.76
2016-12-22T07:00:57.604Z,20.7
2016-12-22T07:01:57.008Z,20.77
2016-12-22T07:02:57.029Z,20.76
2016-12-22T07:03:57.665Z,20.77
2016-12-22T07:04:57.394Z,20.79
2016-12-22T07:05:57.419Z,20.8
2016-12-22T07:06:57.148Z,20.85
2016-12-22T07:07:57.469Z,20.85
2016-12-22T07:08:57.198Z,20.91
2016-12-22T07:09:57.826Z,20.88
2016-12-22T07:10:57.547Z,20.8
2016-12-22T07:11:57.567Z,20.82
2016-12-22T07:12:57.616Z,20.91
2016-12-22T07:13:57.929Z,20.87
2016-12-22T07:14:57.361Z,20.87
2016-12-22T07:15:57.684Z,20.92
2016-12-22T07:16:57.719Z,20.87
2016-12-22T07:17:57.744Z,20.92
2016-12-22T07:18:57.757Z,20.87
2016-12-22T07:19:58.094Z,20.92
2016-12-22T07:20:58.115Z,20.92
2016-12-22T07:21:57.535Z,20.99
2016-12-22T07:22:57.879Z,20.91
2016-12-22T07:23:57.921Z,20.99
2016-12-22T07:24:57.625Z,20.92
2016-12-22T07:25:57.649Z,20.95
2016-12-22T07:26:58.287Z,20.94
2016-12-22T07:27:58.007Z,21.01
2016-12-22T07:28:58.036Z,21.01
2016-12-22T07:29:57.744Z,20.98
2016-12-22T07:30:57.781Z,20.99
2016-12-22T07:31:57.846Z,20.98
2016-12-22T07:32:58.139Z,20.97
2016-12-22T07:33:58.163Z,20.92
2016-12-22T07:34:58.192Z,20.95
2016-12-22T07:35:58.221Z,20.94
2016-12-22T07:36:58.254Z,21.01
2016-12-22T07:37:57.971Z,20.99
2016-12-22T07:38:58.304Z,21.03
2016-12-22T07:39:58.020Z,20.98
2016-12-22T07:40:58.045Z,21.04
2016-12-22T07:41:58.379Z,20.98
2016-12-22T07:42:58.115Z,20.92
2016-12-22T07:43:58.447Z,20.95
2016-12-22T07:44:58.460Z,20.88
2016-12-22T07:45:58.489Z,20.91
2016-12-22T07:46:58.212Z,20.99
2016-12-22T07:47:58.238Z,20.99
2016-12-22T07:48:58.566Z,21.01
2016-12-22T07:49:58.590Z,21.01
2016-12-22T07:50:58.315Z,20.91
2016-12-22T07:51:58.644Z,20.97
2016-12-22T07:52:58.373Z,20.91
2016-12-22T07:53:58.398Z,20.88
2016-12-22T07:54:59.038Z,20.94
2016-12-22T07:55:58.766Z,20.88
2016-12-22T07:56:59.085Z,20.87
2016-12-22T07:57:58.804Z,20.88
2016-12-22T07:58:58.836Z,20.88
2016-12-22T07:59:59.165Z,20.88
2016-12-22T08:00:58.886Z,20.84
2016-12-22T08:01:58.918Z,20.88
2016-12-22T08:02:58.639Z,20.85
2016-12-22T08:03:59.272Z,20.88
2016-12-22T08:04:59.304Z,20.72
2016-12-22T08:05:58.713Z,20.79
2016-12-22T08:06:58.742Z,20.79
2016-12-22T08:07:59.380Z,20.7
2016-12-22T08:08:58.793Z,20.72
2016-12-22T08:09:59.435Z,20.76
2016-12-22T08:10:58.848Z,20.8
2016-12-22T08:11:59.185Z,20.77
2016-12-22T08:12:58.904Z,20.74
2016-12-22T08:13:58.938Z,20.76
2016-12-22T08:14:59.262Z,20.69
2016-12-22T08:15:59.584Z,20.74
2016-12-22T08:16:59.313Z,20.59
2016-12-22T08:17:59.036Z,20.64
2016-12-22T08:18:59.365Z,20.64
2016-12-22T08:19:59.102Z,20.61
2016-12-22T08:20:59.119Z,20.61
2016-12-22T08:21:59.151Z,20.66
2016-12-22T08:22:59.472Z,20.66
2016-12-22T08:23:59.504Z,20.66
2016-12-22T08:24:59.528Z,20.55
2016-12-22T08:25:59.544Z,20.62
2016-12-22T08:26:59.269Z,20.61
2016-12-22T08:27:59.299Z,20.59
2016-12-22T08:28:59.332Z,20.57
2016-12-22T08:29:59.351Z,20.59
2016-12-22T08:30:59.695Z,20.61
2016-12-22T08:31:59.708Z,20.64
2016-12-22T08:33:00.049Z,20.58
2016-12-22T08:33:59.466Z,20.66
2016-12-22T08:34:59.790Z,20.58
2016-12-22T08:36:00.154Z,20.55
2016-12-22T08:37:00.244Z,20.58
2016-12-22T08:37:59.889Z,20.51
2016-12-22T08:39:00.217Z,20.62
2016-12-22T08:39:59.925Z,20.51
2016-12-22T08:40:59.962Z,20.51
2016-12-22T08:41:59.678Z,20.52
2016-12-22T08:42:59.694Z,20.51
2016-12-22T08:43:59.727Z,20.51
2016-12-22T08:44:59.748Z,20.54
2016-12-22T08:46:00.397Z,20.42
2016-12-22T08:46:59.813Z,20.48
2016-12-22T08:48:00.441Z,20.5
2016-12-22T08:49:00.163Z,20.47
2016-12-22T08:50:00.202Z,20.48
2016-12-22T08:51:00.207Z,20.54
2016-12-22T08:52:00.240Z,20.55
2016-12-22T08:52:59.973Z,20.51
2016-12-22T08:54:00.302Z,20.41
2016-12-22T08:55:00.636Z,20.41
2016-12-22T08:56:00.351Z,20.41
2016-12-22T08:57:00.384Z,20.47
2016-12-22T08:58:00.409Z,20.35
2016-12-22T08:59:00.134Z,20.41
2016-12-22T09:00:00.459Z,20.38
2016-12-22T09:01:00.485Z,20.36
2016-12-22T09:02:00.533Z,20.33
2016-12-22T09:03:00.237Z,20.32
2016-12-22T09:04:00.270Z,20.39
2016-12-22T09:05:00.594Z,20.38
2016-12-22T09:06:00.319Z,20.33
2016-12-22T09:07:00.961Z,20.36
2016-12-22T09:08:00.373Z,20.36
2016-12-22T09:09:01.005Z,20.33
2016-12-22T09:10:00.734Z,20.36
2016-12-22T09:11:00.762Z,20.35
2016-12-22T09:12:00.479Z,20.36
2016-12-22T09:13:00.512Z,20.39
2016-12-22T09:14:00.533Z,20.29
2016-12-22T09:15:00.867Z,20.31
2016-12-22T09:16:00.889Z,20.28
2016-12-22T09:17:00.919Z,20.26
2016-12-22T09:22:00.621Z,20.24
2016-12-22T09:22:23.011Z,20.26
2016-12-22T09:23:22.380Z,20.26
2016-12-22T09:24:22.713Z,20.13
2016-12-22T09:25:22.741Z,19.96
2016-12-22T09:26:22.459Z,19.84
2016-12-22T09:27:22.786Z,19.56
2016-12-22T09:28:22.820Z,19.51
2016-12-22T09:29:22.228Z,19.4
2016-12-22T09:30:22.569Z,19.31
2016-12-22T09:31:22.597Z,19.21
2016-12-22T09:32:22.615Z,19.13
2016-12-22T09:33:22.644Z,19.02
2016-12-22T09:34:22.673Z,18.91
2016-12-22T09:35:22.694Z,18.85
2016-12-22T09:36:22.721Z,18.65
2016-12-22T09:37:22.743Z,18.51
2016-12-22T09:38:22.479Z,18.39
2016-12-22T09:39:22.808Z,18.32
2016-12-22T09:40:22.825Z,18.2
2016-12-22T09:41:22.858Z,18.05
2016-12-22T09:42:23.186Z,17.93
2016-12-22T09:43:22.595Z,17.93
2016-12-22T09:44:22.936Z,18.02
2016-12-22T09:45:22.960Z,17.95
2016-12-22T09:46:22.678Z,17.79
2016-12-22T09:47:23.319Z,17.86
2016-12-22T09:48:23.340Z,17.87
2016-12-22T09:49:23.072Z,17.79
2016-12-22T09:50:23.389Z,17.92
2016-12-22T09:51:22.818Z,18
2016-12-22T09:52:22.838Z,17.96
2016-12-22T09:53:23.463Z,18.07
2016-12-22T09:54:22.884Z,18.2
2016-12-22T09:55:22.920Z,18.27
2016-12-22T09:56:23.246Z,18.35
2016-12-22T09:57:23.269Z,18.55
2016-12-22T09:58:22.991Z,18.57
2016-12-22T09:59:23.015Z,18.63
2016-12-22T10:00:23.340Z,18.78
2016-12-22T10:01:23.065Z,18.81
2016-12-22T10:02:23.390Z,18.9
2016-12-22T10:03:23.119Z,18.87
2016-12-22T10:04:23.756Z,19.07
2016-12-22T10:05:23.473Z,19.11
2016-12-22T10:06:23.500Z,19.07
2016-12-22T10:07:23.215Z,19.14
2016-12-22T10:08:23.558Z,19.18
2016-12-22T10:09:23.583Z,19.26
2016-12-22T10:10:23.608Z,19.31
2016-12-22T10:11:23.637Z,19.4
2016-12-22T10:12:23.658Z,19.44
2016-12-22T10:13:23.673Z,19.37
2016-12-22T10:14:23.712Z,19.46
2016-12-22T10:15:23.436Z,19.44
2016-12-22T10:16:23.761Z,19.43
2016-12-22T10:17:23.786Z,19.55
2016-12-22T10:18:23.814Z,19.5
2016-12-22T10:19:23.851Z,19.51
2016-12-22T10:20:24.177Z,19.59
2016-12-22T10:21:23.580Z,19.51
2016-12-22T10:22:23.617Z,19.66
2016-12-22T10:23:23.938Z,19.62
2016-12-22T10:24:23.971Z,19.62
2016-12-22T10:25:23.696Z,19.63
2016-12-22T10:26:23.725Z,19.63
2016-12-22T10:27:23.753Z,19.71
2016-12-22T10:28:24.382Z,19.71
2016-12-22T10:29:23.794Z,19.74
2016-12-22T10:30:24.131Z,19.77
2016-12-22T10:31:23.844Z,19.73
2016-12-22T10:32:24.513Z,19.74
2016-12-22T10:33:24.214Z,19.78
2016-12-22T10:34:24.239Z,19.74
2016-12-22T10:35:24.264Z,19.78
2016-12-22T10:36:24.285Z,19.83
2016-12-22T10:37:24.618Z,19.8
2016-12-22T10:38:24.342Z,19.81
2016-12-22T10:39:24.367Z,19.81
2016-12-22T10:40:24.395Z,19.87
2016-12-22T10:41:24.114Z,19.83
2016-12-22T10:42:24.445Z,19.86
2016-12-22T10:43:24.478Z,19.88
2016-12-22T10:44:24.199Z,19.84
2016-12-22T10:45:24.216Z,19.87
2016-12-22T10:46:24.548Z,19.92
2016-12-22T10:47:24.269Z,19.91
2016-12-22T10:48:24.905Z,19.91
2016-12-22T10:49:24.327Z,19.95
2016-12-22T10:50:24.967Z,19.92
2016-12-22T10:51:25.000Z,19.86
2016-12-22T10:52:25.006Z,19.87
2016-12-22T10:53:24.734Z,19.87
2016-12-22T10:54:24.761Z,19.94
2016-12-22T10:55:25.092Z,19.95
2016-12-22T10:56:24.824Z,19.98
2016-12-22T10:57:25.140Z,19.98
2016-12-22T10:58:24.873Z,19.94
2016-12-22T10:59:25.211Z,19.87
2016-12-22T11:00:24.923Z,19.91
2016-12-22T11:01:25.252Z,19.92
2016-12-22T11:02:24.668Z,19.92
2016-12-22T11:03:24.697Z,19.87
2016-12-22T11:04:25.014Z,19.94
2016-12-22T11:05:25.055Z,19.87
2016-12-22T11:06:25.083Z,19.87
2016-12-22T11:07:24.812Z,19.92
2016-12-22T11:08:25.437Z,19.95
2016-12-22T11:09:25.457Z,19.95
2016-12-22T11:10:25.482Z,19.99
2016-12-22T11:11:25.212Z,19.96
2016-12-22T11:12:25.544Z,19.96
2016-12-22T11:13:25.269Z,19.92
2016-12-22T11:14:25.300Z,19.94
2016-12-22T11:15:25.015Z,19.92
2016-12-22T11:16:25.353Z,19.98
2016-12-22T11:17:25.368Z,19.94
2016-12-22T11:18:25.393Z,19.92
2016-12-22T11:19:25.118Z,19.98
2016-12-22T11:20:25.446Z,19.98
2016-12-22T11:21:25.475Z,19.86
2016-12-22T11:22:25.511Z,19.95
2016-12-22T11:23:25.832Z,19.94
2016-12-22T11:24:25.857Z,19.95
2016-12-22T11:25:25.597Z,19.86
2016-12-22T11:26:25.602Z,19.95
2016-12-22T11:27:25.327Z,19.95
2016-12-22T11:28:25.968Z,19.87
2016-12-22T11:29:25.989Z,19.92
2016-12-22T11:30:26.018Z,19.87
2016-12-22T11:31:26.047Z,19.88
2016-12-22T11:32:26.084Z,19.92
2016-12-22T11:33:25.484Z,19.98
2016-12-22T11:34:25.516Z,19.87
2016-12-22T11:35:25.837Z,19.88
2016-12-22T11:36:25.870Z,19.92
2016-12-22T11:37:25.903Z,19.92
2016-12-22T11:38:25.624Z,19.87
2016-12-22T11:39:26.257Z,19.92
2016-12-22T11:40:25.993Z,19.87
2016-12-22T11:41:25.994Z,19.84
2016-12-22T11:42:26.351Z,19.84
2016-12-22T11:43:26.055Z,19.83
2016-12-22T11:44:25.784Z,19.81
2016-12-22T11:45:25.825Z,19.8
2016-12-22T11:46:26.137Z,19.83
2016-12-22T11:47:26.474Z,19.83
2016-12-22T11:48:26.191Z,19.84
2016-12-22T11:49:26.528Z,19.84
2016-12-22T11:50:25.936Z,19.84
2016-12-22T11:51:26.273Z,19.8
2016-12-22T11:52:26.297Z,19.83
2016-12-22T11:53:26.327Z,19.92
2016-12-22T11:54:26.075Z,19.83
2016-12-22T11:55:26.384Z,19.87
2016-12-22T11:56:26.404Z,19.87
2016-12-22T11:57:26.429Z,19.87
2016-12-22T11:58:26.754Z,19.81
2016-12-22T11:59:26.479Z,19.87
2016-12-22T12:00:26.508Z,19.83
2016-12-22T12:01:26.536Z,19.78
2016-12-22T12:02:26.567Z,19.87
2016-12-22T12:03:26.282Z,19.84
2016-12-22T12:04:26.927Z,19.83
2016-12-22T12:05:26.951Z,19.78
2016-12-22T12:06:26.975Z,19.78
2016-12-22T12:07:26.697Z,19.77
2016-12-22T12:08:26.417Z,19.8
2016-12-22T12:09:26.750Z,19.76
2016-12-22T12:10:26.779Z,19.71
2016-12-22T12:11:26.800Z,19.76
2016-12-22T12:12:26.832Z,19.76
2016-12-22T12:13:27.162Z,19.73
2016-12-22T12:14:26.882Z,19.78
2016-12-22T12:15:26.599Z,19.74
2016-12-22T12:16:26.935Z,19.77
2016-12-22T12:17:26.956Z,19.86
2016-12-22T12:18:26.989Z,19.81
2016-12-22T12:19:27.009Z,19.73
2016-12-22T12:20:27.347Z,19.71
2016-12-22T12:21:27.063Z,19.71
2016-12-22T12:22:27.391Z,19.69
2016-12-22T12:23:27.121Z,19.73
2016-12-22T12:24:26.841Z,19.68
2016-12-22T12:25:27.173Z,19.76
2016-12-22T12:26:27.194Z,19.76
2016-12-22T12:27:27.224Z,19.68
2016-12-22T12:28:27.550Z,19.74
2016-12-22T12:29:27.272Z,19.77
2016-12-22T12:30:27.001Z,19.81
2016-12-22T12:31:27.334Z,19.76
2016-12-22T12:32:27.356Z,19.71
2016-12-22T12:33:27.375Z,19.71
2016-12-22T12:34:27.709Z,19.77
2016-12-22T12:35:27.437Z,19.76
2016-12-22T12:36:27.452Z,19.66
2016-12-22T12:37:27.794Z,19.77
2016-12-22T12:38:27.510Z,19.76
2016-12-22T12:39:27.539Z,19.8
2016-12-22T12:40:27.264Z,19.69
2016-12-22T12:41:27.909Z,19.77
2016-12-22T12:42:27.621Z,19.71
2016-12-22T12:43:27.639Z,19.84
2016-12-22T12:44:27.674Z,19.73
2016-12-22T12:45:27.999Z,19.71
2016-12-22T12:46:27.428Z,19.73
2016-12-22T12:47:27.444Z,19.73
2016-12-22T12:48:27.782Z,19.68
2016-12-22T12:49:27.507Z,19.66
2016-12-22T12:50:27.535Z,19.71
2016-12-22T12:51:27.858Z,19.71
2016-12-22T12:52:27.572Z,19.68
2016-12-22T12:53:27.914Z,19.69
2016-12-22T12:54:27.933Z,19.76
2016-12-22T12:55:27.659Z,19.69
2016-12-22T12:56:27.987Z,19.73
2016-12-22T12:57:27.716Z,19.68
2016-12-22T12:58:28.045Z,19.66